Seafalcon — 9HA2814 — position and weather

sailwx.info

Track history (hours):
 
Tides and Currents Weather Stations Pressure Air Temp Water Temp Dewpoint Dewpoint Depression Visibility Wind Speed Wind Dir Waves Ship Positions

Seafalcon

Last reported at 2019-Feb-17 15:21 UTC. Time now 2019-Feb-17 15:39 UTC.
Position S 32°13' E 115°43'.

Length 250 m; draft 13.4 m.

Type: Ship (hazmat cat A). MMSI: 256078000.

Date/timePositionNaut miles runAvg speedWind from/ knotsBaromVisibWave heightAir tempDewpointWater temp
2019-Feb-17 15:21S 32°13' E 115°43'0 0.1
2019-Feb-17 15:00S 32°13' E 115°43'0 0.0
2019-Feb-17 14:30S 32°13' E 115°43'0 0.0
2019-Feb-17 08:27S 32°13' E 115°43'0 0.0
2019-Feb-17 07:33S 32°13' E 115°43'0 0.0
2019-Feb-17 07:15S 32°13' E 115°43'0 0.0
2019-Feb-17 06:57S 32°13' E 115°43'0 0.0
2019-Feb-17 06:30S 32°13' E 115°43'0 0.0
2019-Feb-17 06:00S 32°13' E 115°43'0 0.0
2019-Feb-17 05:30S 32°13' E 115°43'0 0.1
2019-Feb-17 05:00S 32°13' E 115°43'0 0.3
2019-Feb-17 04:18S 32°13' E 115°43'0 0.1
2019-Feb-17 02:54S 32°13' E 115°43'0 0.1
2019-Feb-17 02:24S 32°13' E 115°43'0 0.0
2019-Feb-17 00:42S 32°13' E 115°43'0 0.0
2019-Feb-17 00:20S 32°13' E 115°43'0 0.2
2019-Feb-17 00:00S 32°13' E 115°43'0 0.2
2019-Feb-16 23:30S 32°13' E 115°43'0 0.1
2019-Feb-16 22:54S 32°13' E 115°43'2 5.2
2019-Feb-16 22:29S 32°14' E 115°45'  
2019-Feb-14 01:03S 32°14' E 115°45'0 1.0
2019-Feb-14 00:59S 32°14' E 115°45'1 2.7
2019-Feb-14 00:30S 32°13' E 115°44'4 8.5
2019-Feb-14 00:00S 32°09' E 115°42'5 9.6
2019-Feb-13 23:30S 32°04' E 115°41'510.9
2019-Feb-13 23:00S 31°59' E 115°42'5 9.4
2019-Feb-13 22:30S 31°55' E 115°38'1 2.5
2019-Feb-13 22:01S 31°55' E 115°39'0 0.3
2019-Feb-13 21:11S 31°55' E 115°39'0 0.0
2019-Feb-13 20:53S 31°55' E 115°39'0 0.1
2019-Feb-13 20:28S 31°55' E 115°39'0 0.0
2019-Feb-13 19:55S 31°55' E 115°39'0 0.0
2019-Feb-13 19:28S 31°55' E 115°39'0 0.0
2019-Feb-13 18:58S 31°55' E 115°39'0 0.1
2019-Feb-13 18:28S 31°55' E 115°39'0 0.0
2019-Feb-13 17:59S 31°55' E 115°39'0 0.0
2019-Feb-13 17:28S 31°55' E 115°39'0 0.0
2019-Feb-13 16:58S 31°55' E 115°39'0 0.0
2019-Feb-13 16:28S 31°55' E 115°39'0 0.0
2019-Feb-13 15:59S 31°55' E 115°39'0 0.0
2019-Feb-13 15:26S 31°55' E 115°39'0 0.1
2019-Feb-13 14:53S 31°55' E 115°39'0 0.0
2019-Feb-13 14:28S 31°55' E 115°39'0 0.0
2019-Feb-13 13:58S 31°55' E 115°39'0 0.0
2019-Feb-13 13:28S 31°55' E 115°39'0 0.0
2019-Feb-13 12:58S 31°55' E 115°39'0 0.0
2019-Feb-13 12:28S 31°55' E 115°39'0 0.0
2019-Feb-13 11:58S 31°55' E 115°39'0 0.0
2019-Feb-13 11:28S 31°55' E 115°39'0 0.0
2019-Feb-13 10:58S 31°55' E 115°39'0 0.0
2019-Feb-13 10:29S 31°55' E 115°39'0 0.1
2019-Feb-13 09:58S 31°55' E 115°39'0 0.2
2019-Feb-13 09:31S 31°55' E 115°39'2 3.8
2019-Feb-13 09:01S 31°54' E 115°37'3 6.5
2019-Feb-13 08:31S 31°53' E 115°33'2 4.9
2019-Feb-13 08:01S 31°52' E 115°31'510.6
2019-Feb-13 07:30S 31°50' E 115°25'1212.1
2019-Feb-13 06:32S 31°44' E 115°13'212.0
2019-Feb-13 06:24S 31°43' E 115°11'  
Track history (hours):
 
Tides and Currents Weather Stations Pressure Air Temp Water Temp Dewpoint Dewpoint Depression Visibility Wind Speed Wind Dir Waves Ship Positions

Seafalcon

Last reported at 2019-Feb-17 15:21 UTC. Time now 2019-Feb-17 15:39 UTC.
Position S 32°13' E 115°43'.

Length 250 m; draft 13.4 m.

Type: Ship (hazmat cat A). MMSI: 256078000.

Date/timePositionNaut miles runAvg speedWind from/ knotsBaromVisibWave heightAir tempDewpointWater temp
2019-Feb-17 15:21S 32°13' E 115°43'0 0.1
2019-Feb-17 15:00S 32°13' E 115°43'0 0.0
2019-Feb-17 14:30S 32°13' E 115°43'0 0.0
2019-Feb-17 08:27S 32°13' E 115°43'0 0.0
2019-Feb-17 07:33S 32°13' E 115°43'0 0.0
2019-Feb-17 07:15S 32°13' E 115°43'0 0.0
2019-Feb-17 06:57S 32°13' E 115°43'0 0.0
2019-Feb-17 06:30S 32°13' E 115°43'0 0.0
2019-Feb-17 06:00S 32°13' E 115°43'0 0.0
2019-Feb-17 05:30S 32°13' E 115°43'0 0.1
2019-Feb-17 05:00S 32°13' E 115°43'0 0.3
2019-Feb-17 04:18S 32°13' E 115°43'0 0.1
2019-Feb-17 02:54S 32°13' E 115°43'0 0.1
2019-Feb-17 02:24S 32°13' E 115°43'0 0.0
2019-Feb-17 00:42S 32°13' E 115°43'0 0.0
2019-Feb-17 00:20S 32°13' E 115°43'0 0.2
2019-Feb-17 00:00S 32°13' E 115°43'0 0.2
2019-Feb-16 23:30S 32°13' E 115°43'0 0.1
2019-Feb-16 22:54S 32°13' E 115°43'2 5.2
2019-Feb-16 22:29S 32°14' E 115°45'  
2019-Feb-14 01:03S 32°14' E 115°45'0 1.0
2019-Feb-14 00:59S 32°14' E 115°45'1 2.7
2019-Feb-14 00:30S 32°13' E 115°44'4 8.5
2019-Feb-14 00:00S 32°09' E 115°42'5 9.6
2019-Feb-13 23:30S 32°04' E 115°41'510.9
2019-Feb-13 23:00S 31°59' E 115°42'5 9.4
2019-Feb-13 22:30S 31°55' E 115°38'1 2.5
2019-Feb-13 22:01S 31°55' E 115°39'0 0.3
2019-Feb-13 21:11S 31°55' E 115°39'0 0.0
2019-Feb-13 20:53S 31°55' E 115°39'0 0.1
2019-Feb-13 20:28S 31°55' E 115°39'0 0.0
2019-Feb-13 19:55S 31°55' E 115°39'0 0.0
2019-Feb-13 19:28S 31°55' E 115°39'0 0.0
2019-Feb-13 18:58S 31°55' E 115°39'0 0.1
2019-Feb-13 18:28S 31°55' E 115°39'0 0.0
2019-Feb-13 17:59S 31°55' E 115°39'0 0.0
2019-Feb-13 17:28S 31°55' E 115°39'0 0.0
2019-Feb-13 16:58S 31°55' E 115°39'0 0.0
2019-Feb-13 16:28S 31°55' E 115°39'0 0.0
2019-Feb-13 15:59S 31°55' E 115°39'0 0.0
2019-Feb-13 15:26S 31°55' E 115°39'0 0.1
2019-Feb-13 14:53S 31°55' E 115°39'0 0.0
2019-Feb-13 14:28S 31°55' E 115°39'0 0.0
2019-Feb-13 13:58S 31°55' E 115°39'0 0.0
2019-Feb-13 13:28S 31°55' E 115°39'0 0.0
2019-Feb-13 12:58S 31°55' E 115°39'0 0.0
2019-Feb-13 12:28S 31°55' E 115°39'0 0.0
2019-Feb-13 11:58S 31°55' E 115°39'0 0.0
2019-Feb-13 11:28S 31°55' E 115°39'0 0.0
2019-Feb-13 10:58S 31°55' E 115°39'0 0.0
2019-Feb-13 10:29S 31°55' E 115°39'0 0.1
2019-Feb-13 09:58S 31°55' E 115°39'0 0.2
2019-Feb-13 09:31S 31°55' E 115°39'2 3.8
2019-Feb-13 09:01S 31°54' E 115°37'3 6.5
2019-Feb-13 08:31S 31°53' E 115°33'2 4.9
2019-Feb-13 08:01S 31°52' E 115°31'510.6
2019-Feb-13 07:30S 31°50' E 115°25'1212.1
2019-Feb-13 06:32S 31°44' E 115°13'212.0
2019-Feb-13 06:24S 31°43' E 115°11'  

Dump ship's entire track history